Time;durP1;ratioP1;P1;durP2;ratioP2;P2;SDS_P1;SDS_P2;PMS_P1;PMS_P2;Temp;Humidity;BMP_temperature;BMP_pressure;BME280_temperature;BME280_humidity;BME280_pressure;Samples;Min_cycle;Max_cycle;Signal;HPM_P1;HPM_P2
2022/03/10 00:02:02;;;;;;;6.85;5.97;;;;;;;15.79;42.39;100858.75;5033990;28;20026;-84
2022/03/10 00:04:28;;;;;;;7.32;5.25;;;;;;;15.74;42.30;100862.56;5035101;28;20057;-83
2022/03/10 00:06:54;;;;;;;6.65;4.72;;;;;;;15.62;42.53;100856.25;5033817;28;20502;-81
2022/03/10 00:09:20;;;;;;;7.05;5.50;;;;;;;15.77;42.14;100856.34;5033784;28;20060;-81
2022/03/10 00:11:47;;;;;;;9.75;5.55;;;;;;;15.78;42.32;100854.41;5033830;28;20017;-84
2022/03/10 00:14:13;;;;;;;6.88;4.93;;;;;;;15.86;42.16;100856.22;5033674;28;20480;-84
2022/03/10 00:16:39;;;;;;;6.55;5.15;;;;;;;15.93;41.97;100850.94;5033860;28;20380;-81
2022/03/10 00:19:05;;;;;;;6.25;4.80;;;;;;;15.76;42.55;100854.75;5033728;28;20032;-81
2022/03/10 00:21:30;;;;;;;7.93;5.32;;;;;;;15.86;42.29;100852.69;5033768;28;20029;-84
2022/03/10 00:23:56;;;;;;;5.85;4.25;;;;;;;15.83;42.31;100843.16;5034930;28;20057;-84
2022/03/10 00:26:21;;;;;;;7.22;4.70;;;;;;;15.72;42.54;100844.78;5034739;28;20029;-84
2022/03/10 00:28:47;;;;;;;5.55;4.53;;;;;;;15.59;42.89;100848.66;5034661;28;20033;-83
2022/03/10 00:31:13;;;;;;;6.38;4.40;;;;;;;15.64;42.74;100842.91;5033405;28;20032;-86
2022/03/10 00:33:38;;;;;;;5.38;4.53;;;;;;;15.55;42.81;100843.81;5034728;28;20029;-85
2022/03/10 00:36:06;;;;;;;6.65;3.97;;;;;;;15.66;42.67;100854.41;5033627;28;20445;-81
2022/03/10 00:38:31;;;;;;;8.88;5.35;;;;;;;15.65;42.89;100844.56;5033477;28;20044;-84
2022/03/10 00:40:59;;;;;;;5.43;3.53;;;;;;;15.79;42.57;100853.25;5032990;28;20068;-83
2022/03/10 00:43:24;;;;;;;5.72;3.65;;;;;;;15.85;42.35;100856.59;5034264;28;20053;-82
2022/03/10 00:45:50;;;;;;;6.78;4.07;;;;;;;15.90;42.46;100854.41;5034175;28;20045;-82
2022/03/10 00:48:16;;;;;;;4.75;3.50;;;;;;;15.95;42.30;100854.19;5034272;28;20475;-84
2022/03/10 00:50:41;;;;;;;4.78;3.40;;;;;;;15.92;42.52;100848.53;5032720;28;20041;-84
2022/03/10 00:53:07;;;;;;;4.65;3.63;;;;;;;15.97;42.49;100846.34;5032189;28;20026;-82
2022/03/10 00:55:33;;;;;;;4.82;3.38;;;;;;;16.01;42.41;100839.00;5032835;28;20034;-84
2022/03/10 00:57:58;;;;;;;4.70;3.22;;;;;;;15.97;42.60;100846.34;5032573;28;20041;-80
2022/03/10 01:00:28;;;;;;;6.03;3.75;;;;;;;16.04;42.23;100846.56;5032670;28;20056;-81
2022/03/10 01:02:54;;;;;;;6.57;3.78;;;;;;;15.95;42.58;100851.41;5033966;28;20545;-82
2022/03/10 01:05:20;;;;;;;4.75;3.70;;;;;;;15.97;42.53;100843.59;5032546;28;20484;-83
2022/03/10 01:07:45;;;;;;;4.25;3.10;;;;;;;15.94;42.51;100841.53;5033910;28;20109;-84
2022/03/10 01:10:12;;;;;;;4.82;3.67;;;;;;;15.99;42.50;100841.28;5033596;28;20507;-82
2022/03/10 01:12:41;;;;;;;4.93;3.50;;;;;;;16.05;42.44;100839.91;5032328;28;20476;-83
2022/03/10 01:15:14;;;;;;;4.38;3.08;;;;;;;16.14;42.33;100837.03;5032378;28;20644;-82
2022/03/10 01:17:40;;;;;;;4.50;3.40;;;;;;;16.17;42.25;100841.03;5032324;28;20025;-83
2022/03/10 01:20:06;;;;;;;5.50;3.95;;;;;;;16.12;42.27;100839.31;5032986;28;20079;-81
2022/03/10 01:22:31;;;;;;;7.13;3.67;;;;;;;16.18;42.46;100842.66;5033257;28;20037;-86
2022/03/10 01:24:57;;;;;;;5.35;3.53;;;;;;;16.12;42.71;100841.28;5033445;28;20399;-82
2022/03/10 01:27:22;;;;;;;5.32;3.25;;;;;;;16.20;42.17;100841.16;5033590;28;20034;-83
2022/03/10 01:29:48;;;;;;;4.97;3.20;;;;;;;16.07;42.80;100837.59;5032417;28;20491;-84
2022/03/10 01:32:13;;;;;;;4.32;3.25;;;;;;;16.14;42.58;100844.50;5033606;28;20091;-82
2022/03/10 01:34:39;;;;;;;4.22;2.80;;;;;;;16.19;42.40;100845.06;5033313;28;20463;-85
2022/03/10 01:37:05;;;;;;;5.07;3.25;;;;;;;16.22;42.41;100836.09;5032397;28;20119;-83
2022/03/10 01:39:34;;;;;;;5.93;3.22;;;;;;;16.23;42.44;100834.13;5032462;28;20029;-85
2022/03/10 01:42:00;;;;;;;4.30;2.88;;;;;;;16.17;42.55;100833.59;5032157;28;20476;-84
2022/03/10 01:44:26;;;;;;;4.40;2.97;;;;;;;16.21;42.31;100834.47;5032082;28;20468;-82
2022/03/10 01:46:52;;;;;;;4.47;3.03;;;;;;;16.21;42.38;100834.47;5032177;28;20117;-85
2022/03/10 01:49:17;;;;;;;5.40;3.80;;;;;;;16.24;42.43;100824.69;5033267;28;20108;-85
2022/03/10 01:51:43;;;;;;;5.30;3.78;;;;;;;16.24;42.49;100825.50;5033290;28;20033;-85
2022/03/10 01:54:09;;;;;;;5.00;3.38;;;;;;;16.29;42.50;100818.94;5032956;28;20064;-85
2022/03/10 01:56:35;;;;;;;5.57;3.13;;;;;;;16.39;42.24;100821.19;5039281;28;20045;-82
2022/03/10 01:59:04;;;;;;;3.90;2.85;;;;;;;16.39;42.10;100810.16;5034883;28;20029;-84
2022/03/10 02:01:31;;;;;;;5.43;3.30;;;;;;;16.45;41.93;100814.28;5034884;28;20032;-85
2022/03/10 02:03:57;;;;;;;6.45;3.80;;;;;;;16.49;42.16;100809.69;5051697;28;20063;-86
2022/03/10 02:06:24;;;;;;;4.80;3.17;;;;;;;16.54;42.10;100812.19;5034952;28;20033;-85
2022/03/10 02:11:35;;;;;;;5.90;4.10;;;;;;;16.50;42.15;100807.72;5053032;28;20124;-85
2022/03/10 02:17:19;;;;;;;4.63;3.75;;;;;;;16.50;41.86;100803.03;5052661;28;20049;-82
2022/03/10 02:19:30;;;;;;;5.65;3.83;;;;;;;16.37;42.30;100793.97;5053189;28;20403;-84
2022/03/10 02:21:57;;;;;;;5.95;4.47;;;;;;;16.41;42.07;100796.84;5035066;28;20033;-85
2022/03/10 02:24:24;;;;;;;5.90;4.00;;;;;;;16.35;42.30;100787.22;5034756;28;20099;-84
2022/03/10 02:26:50;;;;;;;7.40;4.70;;;;;;;16.40;42.46;100784.22;5052739;28;20079;-86
2022/03/10 02:29:16;;;;;;;6.43;4.97;;;;;;;16.40;42.21;100773.19;5034815;28;20021;-82
2022/03/10 02:31:42;;;;;;;7.05;4.95;;;;;;;16.45;42.22;100780.41;5034650;28;20021;-84
2022/03/10 02:34:10;;;;;;;7.25;4.97;;;;;;;16.46;42.35;100777.28;5052482;28;20364;-85
2022/03/10 02:36:35;;;;;;;9.52;5.30;;;;;;;16.52;42.20;100773.13;5034855;28;20062;-82
2022/03/10 02:39:01;;;;;;;7.13;4.72;;;;;;;16.55;42.16;100777.13;5052465;28;20021;-82
2022/03/10 02:41:27;;;;;;;7.22;5.10;;;;;;;16.55;42.17;100766.91;5034762;28;20140;-85
2022/03/10 02:43:52;;;;;;;5.68;4.38;;;;;;;16.58;41.79;100768.16;5052500;28;20558;-85
2022/03/10 02:46:18;;;;;;;8.88;5.70;;;;;;;16.56;42.11;100767.72;5034735;28;20488;-82
2022/03/10 02:48:43;;;;;;;7.88;5.68;;;;;;;16.56;41.83;100763.00;5052469;28;20414;-82
2022/03/10 02:51:09;;;;;;;6.35;5.00;;;;;;;16.57;41.90;100756.31;5034572;28;20021;-83
2022/03/10 02:53:35;;;;;;;9.57;5.25;;;;;;;16.62;41.66;100750.56;5052235;28;20104;-81
2022/03/10 02:56:00;;;;;;;8.93;6.20;;;;;;;16.65;41.98;100751.81;5034258;28;20025;-82
2022/03/10 02:58:26;;;;;;;7.60;5.57;;;;;;;16.56;42.00;100746.44;5034593;28;20025;-82
2022/03/10 03:00:51;;;;;;;6.57;4.90;;;;;;;16.42;42.29;100753.53;5052140;28;20025;-82
2022/03/10 03:03:17;;;;;;;8.52;5.90;;;;;;;16.41;42.28;100749.19;5052452;28;20422;-84
2022/03/10 03:05:43;;;;;;;7.60;5.75;;;;;;;16.35;42.35;100743.09;5034603;28;20048;-85
2022/03/10 03:08:08;;;;;;;7.90;6.05;;;;;;;16.36;42.45;100752.97;5034696;28;20056;-85
2022/03/10 03:10:36;;;;;;;8.77;6.57;;;;;;;16.37;42.57;100751.81;5034535;28;20116;-84
2022/03/10 03:13:03;;;;;;;7.25;6.07;;;;;;;16.43;42.38;100755.94;5034411;28;20540;-85
2022/03/10 03:15:28;;;;;;;10.75;7.03;;;;;;;16.50;42.15;100756.13;5035661;28;20348;-82
2022/03/10 03:17:54;;;;;;;9.02;7.28;;;;;;;16.46;42.39;100757.19;5056160;28;20032;-82
2022/03/10 03:20:20;;;;;;;8.25;7.15;;;;;;;16.49;42.34;100745.47;5038027;28;20021;-84
2022/03/10 03:22:45;;;;;;;9.43;7.20;;;;;;;16.47;42.35;100742.22;5037924;28;20036;-85
2022/03/10 03:25:17;;;;;;;8.77;6.70;;;;;;;16.46;42.31;100744.19;5038070;28;20024;-84
2022/03/10 03:27:42;;;;;;;9.35;6.43;;;;;;;16.45;42.52;100739.03;5038022;28;20509;-82
2022/03/10 03:30:09;;;;;;;8.57;6.80;;;;;;;16.47;42.56;100732.00;5055760;28;20029;-83
2022/03/10 03:32:35;;;;;;;10.07;6.30;;;;;;;16.50;42.23;100727.75;5037952;28;20079;-85
2022/03/10 03:35:01;;;;;;;7.18;6.43;;;;;;;16.43;42.38;100741.34;5055713;28;20463;-84
2022/03/10 03:37:27;;;;;;;7.90;6.03;;;;;;;16.51;42.24;100732.91;5037659;28;20386;-85
2022/03/10 03:39:52;;;;;;;11.38;7.03;;;;;;;16.52;42.20;100733.72;5037819;28;20028;-86
2022/03/10 03:42:18;;;;;;;8.90;7.22;;;;;;;16.53;42.27;100730.59;5055630;28;20025;-85
2022/03/10 03:44:43;;;;;;;11.68;8.77;;;;;;;16.46;42.30;100724.88;5037522;28;20033;-85
2022/03/10 03:47:09;;;;;;;11.02;8.60;;;;;;;16.50;42.61;100717.50;5037726;28;20459;-85
2022/03/10 03:49:34;;;;;;;9.85;8.20;;;;;;;16.53;42.07;100716.81;5037376;28;20032;-82
2022/03/10 03:52:00;;;;;;;12.95;9.52;;;;;;;16.49;42.48;100715.91;5055315;28;20032;-84
2022/03/10 03:54:26;;;;;;;13.30;9.60;;;;;;;16.35;42.75;100712.78;5055113;28;20033;-82
2022/03/10 03:56:51;;;;;;;12.95;9.98;;;;;;;16.38;42.71;100714.81;5037185;28;20052;-86
2022/03/10 03:59:17;;;;;;;12.82;10.30;;;;;;;16.34;42.55;100711.97;5037414;28;20035;-85
2022/03/10 04:01:42;;;;;;;13.00;10.25;;;;;;;16.24;42.69;100722.69;5037623;28;20068;-86
2022/03/10 04:04:08;;;;;;;12.75;10.63;;;;;;;16.27;42.69;100720.06;5037372;28;20087;-86
2022/03/10 04:06:34;;;;;;;11.60;9.50;;;;;;;16.27;42.48;100716.50;5037180;28;20044;-83
2022/03/10 04:08:59;;;;;;;15.80;9.88;;;;;;;16.08;42.71;100719.88;5037148;28;20017;-82
2022/03/10 04:11:25;;;;;;;12.98;9.70;;;;;;;15.95;43.03;100716.38;5055232;28;20104;-85
2022/03/10 04:13:50;;;;;;;10.75;9.07;;;;;;;16.06;42.87;100725.75;5037230;28;20029;-86
2022/03/10 04:16:17;;;;;;;12.82;9.90;;;;;;;15.94;43.14;100717.50;5037166;28;20024;-85
2022/03/10 04:18:43;;;;;;;10.45;8.77;;;;;;;15.95;43.00;100723.84;5037013;28;20025;-87
2022/03/10 04:21:08;;;;;;;12.25;8.65;;;;;;;15.85;43.28;100725.13;5037059;28;20442;-83
2022/03/10 04:23:34;;;;;;;11.35;9.00;;;;;;;15.81;43.23;100721.47;5036908;28;20549;-86
2022/03/10 04:26:00;;;;;;;10.52;8.10;;;;;;;15.93;42.66;100707.66;5036716;28;20471;-86
2022/03/10 04:28:26;;;;;;;12.05;7.95;;;;;;;15.96;42.81;100704.22;5036270;28;20028;-84
2022/03/10 04:30:52;;;;;;;10.30;8.02;;;;;;;16.00;42.79;100707.84;5036967;28;20033;-86
2022/03/10 04:33:18;;;;;;;10.27;6.95;;;;;;;15.99;42.75;100714.53;5036911;28;20036;-82
2022/03/10 04:35:44;;;;;;;11.05;7.78;;;;;;;16.04;42.94;100716.25;5036638;28;20033;-83
2022/03/10 04:38:10;;;;;;;10.95;8.70;;;;;;;16.12;42.82;100711.72;5037021;28;20070;-82
2022/03/10 04:40:37;;;;;;;9.35;7.28;;;;;;;16.05;42.94;100707.63;5036464;28;20475;-81
2022/03/10 04:43:02;;;;;;;9.20;6.90;;;;;;;16.02;42.94;100713.84;5036639;28;20430;-85
2022/03/10 04:45:28;;;;;;;10.55;7.38;;;;;;;15.95;43.28;100721.09;5036478;28;20037;-82
2022/03/10 04:47:54;;;;;;;10.80;6.70;;;;;;;15.96;42.87;100725.47;5036618;28;20029;-82
2022/03/10 04:50:19;;;;;;;7.32;6.10;;;;;;;15.88;43.19;100718.94;5036446;28;20542;-82
2022/03/10 04:52:45;;;;;;;8.15;6.57;;;;;;;15.67;43.69;100732.06;5054224;28;20033;-85
2022/03/10 04:55:12;;;;;;;7.35;6.00;;;;;;;15.75;43.19;100722.88;5054261;28;20071;-82
2022/03/10 04:57:39;;;;;;;8.32;5.90;;;;;;;15.80;43.28;100725.41;5053924;28;20123;-85
2022/03/10 05:00:10;;;;;;;6.72;5.50;;;;;;;15.72;43.42;100721.63;5036322;28;20031;-83
2022/03/10 05:02:36;;;;;;;8.38;5.80;;;;;;;15.74;43.15;100724.81;5036650;28;20124;-85
2022/03/10 05:05:03;;;;;;;8.02;6.45;;;;;;;15.71;43.28;100716.44;5036468;28;20040;-85
2022/03/10 05:07:28;;;;;;;6.50;5.32;;;;;;;15.81;43.07;100716.78;5036364;28;20032;-81
2022/03/10 05:09:54;;;;;;;7.43;6.18;;;;;;;15.80;43.21;100717.13;5035949;28;20391;-84
2022/03/10 05:12:20;;;;;;;5.88;5.03;;;;;;;15.84;43.05;100723.53;5035957;28;20025;-84
2022/03/10 05:14:46;;;;;;;7.80;5.53;;;;;;;15.76;43.14;100722.50;5053947;28;20509;-82
2022/03/10 05:17:12;;;;;;;8.98;5.15;;;;;;;15.75;43.40;100715.41;5054085;28;20120;-86
2022/03/10 05:19:37;;;;;;;5.93;5.00;;;;;;;15.77;43.27;100720.56;5036039;28;20116;-83
2022/03/10 05:22:03;;;;;;;7.18;5.40;;;;;;;15.75;43.26;100728.38;5035819;28;20492;-82
2022/03/10 05:24:29;;;;;;;6.47;5.00;;;;;;;15.67;43.30;100724.59;5060884;28;20085;-82
2022/03/10 05:26:54;;;;;;;9.93;5.97;;;;;;;15.50;43.68;100733.91;5073763;28;20029;-82
2022/03/10 05:29:20;;;;;;;7.22;5.50;;;;;;;15.64;43.33;100739.09;5055719;28;20493;-84
2022/03/10 05:31:46;;;;;;;8.23;5.50;;;;;;;15.66;43.25;100745.03;5073547;28;20024;-84
2022/03/10 05:34:11;;;;;;;9.38;5.53;;;;;;;15.69;43.15;100743.53;5055556;28;20032;-86
2022/03/10 05:36:37;;;;;;;8.18;5.75;;;;;;;15.72;43.19;100743.66;5055518;28;20032;-86
2022/03/10 05:39:04;;;;;;;8.50;5.93;;;;;;;15.60;43.31;100745.59;5055318;28;20483;-82
2022/03/10 05:41:32;;;;;;;6.80;5.63;;;;;;;15.69;43.17;100733.31;5071916;28;20421;-81
2022/03/10 05:43:58;;;;;;;7.45;5.68;;;;;;;15.70;43.32;100734.13;5055230;28;20025;-82
2022/03/10 05:46:23;;;;;;;10.27;6.40;;;;;;;15.77;43.07;100739.84;5054834;28;20487;-86
2022/03/10 05:48:49;;;;;;;9.10;6.18;;;;;;;15.67;43.42;100746.66;5073415;28;20523;-85
2022/03/10 05:51:14;;;;;;;9.93;6.53;;;;;;;15.62;43.57;100748.81;5055499;28;20025;-82
2022/03/10 05:53:40;;;;;;;9.90;6.75;;;;;;;15.75;43.30;100742.16;5073017;28;20028;-85
2022/03/10 05:56:06;;;;;;;8.70;6.78;;;;;;;15.74;43.21;100744.09;5072792;28;20486;-85
2022/03/10 05:58:31;;;;;;;7.40;6.18;;;;;;;15.63;43.33;100742.16;5073300;28;20025;-84
2022/03/10 06:00:57;;;;;;;8.00;6.53;;;;;;;15.71;42.97;100752.25;5055020;28;20114;-82
2022/03/10 06:03:22;;;;;;;8.88;6.60;;;;;;;15.58;43.29;100747.91;5055094;28;20051;-82
2022/03/10 06:05:48;;;;;;;9.45;6.57;;;;;;;15.55;43.68;100749.38;5055299;28;20024;-84
2022/03/10 06:08:14;;;;;;;7.78;6.65;;;;;;;15.60;43.26;100760.16;5073216;28;20047;-82
2022/03/10 06:10:39;;;;;;;11.10;7.80;;;;;;;15.58;43.25;100765.22;5055168;28;20368;-86
2022/03/10 06:13:05;;;;;;;12.98;8.27;;;;;;;15.60;43.23;100764.88;5071852;28;20387;-85
2022/03/10 06:15:31;;;;;;;9.35;7.43;;;;;;;15.53;43.42;100763.50;5055151;28;20032;-82
2022/03/10 06:17:56;;;;;;;10.60;8.02;;;;;;;15.56;43.36;100762.00;5055107;28;20032;-85
2022/03/10 06:20:22;;;;;;;19.77;9.07;;;;;;;15.49;43.41;100759.84;5071848;28;20021;-86
2022/03/10 06:22:47;;;;;;;14.18;7.90;;;;;;;15.54;43.62;100767.84;5055142;28;20483;-83
2022/03/10 06:25:13;;;;;;;12.23;8.25;;;;;;;15.57;43.55;100771.88;5055406;28;20032;-82
2022/03/10 06:27:39;;;;;;;17.27;8.85;;;;;;;15.51;43.77;100770.50;5054938;28;20074;-82
2022/03/10 06:30:05;;;;;;;9.35;7.50;;;;;;;15.58;43.36;100780.94;5072887;28;20544;-86
2022/03/10 06:32:31;;;;;;;14.73;8.25;;;;;;;15.59;43.46;100779.78;5055218;28;20024;-84
2022/03/10 06:34:59;;;;;;;15.43;8.63;;;;;;;15.49;43.91;100790.13;5055178;28;20043;-86
2022/03/10 06:37:25;;;;;;;13.25;10.05;;;;;;;15.54;43.55;100787.13;5073286;28;20020;-86
2022/03/10 06:39:52;;;;;;;18.00;13.20;;;;;;;15.53;43.68;100795.75;5055394;28;20028;-85
2022/03/10 06:42:18;;;;;;;21.73;16.15;;;;;;;15.55;43.77;100798.94;5073015;28;20429;-82
2022/03/10 06:44:44;;;;;;;18.90;15.40;;;;;;;15.60;43.19;100798.72;5054990;28;20037;-85
2022/03/10 06:47:10;;;;;;;20.83;15.98;;;;;;;15.25;44.07;100798.38;5055220;28;20427;-86
2022/03/10 06:49:36;;;;;;;21.15;15.20;;;;;;;15.53;43.34;100796.53;5054821;28;20028;-86
2022/03/10 06:52:02;;;;;;;18.67;12.57;;;;;;;15.32;43.82;100795.84;5058689;28;20048;-84
2022/03/10 06:54:27;;;;;;;14.73;11.38;;;;;;;15.39;43.53;100787.81;5058620;28;20536;-82
2022/03/10 06:56:53;;;;;;;12.65;10.70;;;;;;;15.31;43.77;100787.94;5076075;28;20048;-84
2022/03/10 06:59:19;;;;;;;18.35;10.85;;;;;;;15.30;43.58;100792.66;5076459;28;20036;-86
2022/03/10 07:01:45;;;;;;;12.55;10.93;;;;;;;15.36;43.50;100791.28;5075233;28;20056;-85
2022/03/10 07:04:10;;;;;;;10.27;9.02;;;;;;;15.29;43.69;100796.53;5058329;28;20104;-86
2022/03/10 07:06:36;;;;;;;12.15;9.65;;;;;;;15.29;43.57;100793.78;5058486;28;20024;-85
2022/03/10 07:09:02;;;;;;;11.70;9.85;;;;;;;15.26;43.68;100805.47;5058393;28;20463;-86
2022/03/10 07:11:27;;;;;;;12.00;8.55;;;;;;;15.21;43.82;100806.53;5058716;28;20028;-85
2022/03/10 07:13:53;;;;;;;16.25;10.63;;;;;;;15.10;43.94;100810.03;5058658;28;20033;-83
2022/03/10 07:16:19;;;;;;;11.40;8.45;;;;;;;15.13;43.86;100803.88;5058296;28;20032;-85
2022/03/10 07:18:50;;;;;;;15.02;9.27;;;;;;;15.12;43.87;100818.78;5076370;28;20057;-82
2022/03/10 07:21:20;;;;;;;11.80;9.15;;;;;;;15.08;43.95;100824.16;5076630;28;20025;-82
2022/03/10 07:23:45;;;;;;;13.45;8.93;;;;;;;15.09;43.95;100820.25;5076484;28;20163;-82
2022/03/10 07:26:12;;;;;;;11.10;8.35;;;;;;;14.95;44.26;100825.25;5075885;28;20088;-87
2022/03/10 07:28:38;;;;;;;15.55;9.32;;;;;;;15.08;44.00;100828.84;5058143;28;20025;-82
2022/03/10 07:31:04;;;;;;;10.45;8.38;;;;;;;15.01;44.12;100825.84;5058093;28;20397;-84
2022/03/10 07:33:30;;;;;;;13.48;9.18;;;;;;;15.04;43.96;100827.91;5057860;28;20031;-87
2022/03/10 07:35:55;;;;;;;11.80;8.82;;;;;;;15.09;44.04;100830.47;5058279;28;20039;-82
2022/03/10 07:38:21;;;;;;;13.77;9.10;;;;;;;15.05;44.35;100835.84;5057997;28;20032;-87
2022/03/10 07:40:47;;;;;;;11.38;8.10;;;;;;;15.20;43.86;100840.69;5058083;28;20139;-86
2022/03/10 07:43:12;;;;;;;11.00;8.25;;;;;;;15.22;43.81;100843.91;5075897;28;20074;-87
2022/03/10 07:45:38;;;;;;;11.10;7.95;;;;;;;15.32;43.52;100850.91;5058363;28;20029;-86
2022/03/10 07:48:04;;;;;;;9.15;7.20;;;;;;;15.19;44.02;100846.56;5074819;28;20032;-82
2022/03/10 07:50:30;;;;;;;11.13;7.82;;;;;;;15.21;44.07;100853.31;5057786;28;20058;-87
2022/03/10 07:52:56;;;;;;;14.18;7.60;;;;;;;15.35;43.94;100843.94;5057815;28;20028;-86
2022/03/10 07:55:21;;;;;;;19.40;7.82;;;;;;;15.26;43.80;100849.50;5057925;28;20028;-88
2022/03/10 07:57:47;;;;;;;9.70;6.57;;;;;;;15.36;43.69;100854.59;5075809;28;20414;-87
2022/03/10 08:00:13;;;;;;;15.70;7.28;;;;;;;15.29;43.81;100856.31;5074298;28;20029;-85
2022/03/10 08:02:39;;;;;;;8.90;6.88;;;;;;;15.32;43.62;100853.66;5057978;28;20539;-86
2022/03/10 08:05:05;;;;;;;8.70;6.22;;;;;;;15.45;43.53;100848.97;5075556;28;20029;-82
2022/03/10 08:07:34;;;;;;;12.52;6.40;;;;;;;15.42;43.76;100855.19;5052706;28;20036;-88
2022/03/10 08:10:09;;;;;;;10.70;6.68;;;;;;;15.47;43.70;100864.00;5079574;28;20108;-83
2022/03/10 08:12:35;;;;;;;9.52;6.28;;;;;;;15.49;43.86;100856.22;5093180;28;20028;-82
2022/03/10 08:15:02;;;;;;;7.57;5.88;;;;;;;15.59;43.34;100854.97;5076839;28;20619;-88
2022/03/10 08:17:28;;;;;;;7.65;5.32;;;;;;;15.65;43.42;100855.56;5076980;28;20103;-82
2022/03/10 08:19:55;;;;;;;10.90;6.95;;;;;;;15.60;43.77;100856.56;5076868;28;20119;-84
2022/03/10 08:22:21;;;;;;;8.05;5.88;;;;;;;15.63;44.03;100855.88;5077639;28;20025;-84
2022/03/10 08:24:48;;;;;;;8.55;5.40;;;;;;;15.65;43.82;100858.31;5076929;28;20478;-90
2022/03/10 08:27:17;;;;;;;8.63;5.82;;;;;;;15.76;43.38;100860.25;5094915;28;20453;-87
2022/03/10 08:29:44;;;;;;;9.68;5.80;;;;;;;15.71;43.56;100856.94;5063747;28;20116;-83
2022/03/10 08:32:10;;;;;;;7.82;5.50;;;;;;;15.65;43.52;100863.84;5040692;28;20072;-83
2022/03/10 08:34:37;;;;;;;8.73;5.95;;;;;;;15.61;43.69;100865.63;5034870;28;20141;-83
2022/03/10 08:37:03;;;;;;;8.93;7.28;;;;;;;15.62;43.46;100859.00;5036361;28;20025;-83
2022/03/10 08:39:29;;;;;;;12.27;8.38;;;;;;;15.60;43.02;100856.56;5051338;28;20052;-83
2022/03/10 08:41:55;;;;;;;11.70;7.28;;;;;;;15.57;43.23;100861.94;5042540;28;20100;-83
2022/03/10 08:44:21;;;;;;;9.15;7.07;;;;;;;15.59;42.97;100865.19;5040782;28;20886;-81
2022/03/10 08:46:47;;;;;;;9.77;6.68;;;;;;;15.57;42.96;100864.69;5070671;28;20025;-89
2022/03/10 08:49:13;;;;;;;13.00;7.57;;;;;;;15.57;42.95;100867.44;5055663;28;20024;-86
2022/03/10 08:51:39;;;;;;;10.35;7.35;;;;;;;15.54;43.13;100857.94;5073413;28;20039;-82
2022/03/10 08:54:05;;;;;;;10.63;8.05;;;;;;;15.66;42.88;100866.25;5054958;28;20028;-82
2022/03/10 08:56:31;;;;;;;11.20;8.75;;;;;;;15.66;42.88;100869.00;5056142;28;20049;-89
2022/03/10 08:58:56;;;;;;;11.80;9.07;;;;;;;15.65;43.08;100870.16;5056885;28;20682;-89
2022/03/10 09:01:22;;;;;;;15.35;10.23;;;;;;;15.71;42.95;100878.97;5056646;28;20027;-85
2022/03/10 09:03:48;;;;;;;13.60;10.43;;;;;;;15.78;42.71;100862.66;5073439;28;20060;-83
2022/03/10 09:06:14;;;;;;;17.73;10.75;;;;;;;15.84;42.89;100871.50;5073140;28;20056;-83
2022/03/10 09:08:39;;;;;;;21.52;12.35;;;;;;;15.87;42.91;100871.63;5055502;28;20020;-81
2022/03/10 09:11:07;;;;;;;15.55;10.90;;;;;;;16.03;42.84;100864.28;5073529;28;20024;-85
2022/03/10 09:13:33;;;;;;;17.05;11.55;;;;;;;16.05;42.72;100877.69;5094250;28;20031;-90
2022/03/10 09:15:59;;;;;;;18.25;11.82;;;;;;;16.00;43.04;100869.66;5077082;28;20090;-92
2022/03/10 09:18:24;;;;;;;19.90;12.60;;;;;;;16.16;42.41;100850.44;5077130;28;20024;-91
2022/03/10 09:20:50;;;;;;;18.77;12.52;;;;;;;16.26;42.82;100872.03;5095119;28;20024;-89
2022/03/10 09:23:16;;;;;;;19.88;12.73;;;;;;;16.44;42.74;100872.56;5073185;28;20111;-90
2022/03/10 09:25:41;;;;;;;22.25;13.20;;;;;;;16.44;42.79;100872.56;5056146;28;20405;-87
2022/03/10 09:28:07;;;;;;;21.65;13.02;;;;;;;16.42;42.63;100870.16;5056184;28;20199;-82
2022/03/10 09:30:33;;;;;;;19.08;11.30;;;;;;;16.45;42.32;100874.97;5056665;28;20052;-90
2022/03/10 09:32:59;;;;;;;15.02;10.07;;;;;;;16.41;42.47;100876.84;5056572;28;20025;-89
2022/03/10 09:35:25;;;;;;;21.67;12.18;;;;;;;16.29;42.44;100872.13;5056385;28;20028;-89
2022/03/10 09:37:52;;;;;;;21.55;13.00;;;;;;;16.30;42.39;100861.91;5056514;28;20063;-90
2022/03/10 09:40:18;;;;;;;23.65;12.65;;;;;;;16.34;42.03;100863.63;5056310;28;20024;-91
2022/03/10 09:42:47;;;;;;;23.88;13.50;;;;;;;16.56;41.75;100859.53;5054961;28;20021;-89
2022/03/10 09:45:14;;;;;;;17.80;10.75;;;;;;;16.55;42.01;100862.63;5057037;28;20024;-90
2022/03/10 09:47:43;;;;;;;14.32;8.93;;;;;;;16.65;41.77;100860.19;5056532;28;20058;-88
2022/03/10 09:50:13;;;;;;;11.70;7.67;;;;;;;16.23;42.20;100861.69;5073075;28;20020;-90
2022/03/10 09:52:39;;;;;;;;;;;;;;;16.50;41.87;100871.16;5057423;28;20498;-90
2022/03/10 09:55:06;;;;;;;13.00;7.75;;;;;;;16.63;41.53;100869.97;5057204;28;19912;-89
2022/03/10 09:57:34;;;;;;;12.77;7.60;;;;;;;16.74;41.51;100871.09;5084125;28;20179;-90
2022/03/10 10:00:00;;;;;;;13.88;7.40;;;;;;;16.80;41.53;100860.63;5056485;28;20035;-90
2022/03/10 10:02:27;;;;;;;17.15;8.63;;;;;;;16.72;41.71;100864.34;5073993;28;20024;-90
2022/03/10 10:04:54;;;;;;;18.13;7.30;;;;;;;16.88;41.53;100867.94;5056238;28;20028;-89
2022/03/10 10:07:22;;;;;;;14.93;6.25;;;;;;;16.90;41.38;100860.09;5073051;28;20016;-90
2022/03/10 10:09:54;;;;;;;9.75;5.88;;;;;;;16.94;41.76;100862.97;5056019;28;20082;-91
2022/03/10 10:12:25;;;;;;;7.53;4.53;;;;;;;17.04;41.46;100866.00;5083434;28;20474;-84
2022/03/10 10:14:50;;;;;;;9.25;3.35;;;;;;;17.02;41.74;100864.78;5092690;28;20102;-83
2022/03/10 10:17:24;;;;;;;6.25;3.33;;;;;;;17.10;41.47;100861.03;5074166;28;20126;-83
2022/03/10 10:19:54;;;;;;;6.95;3.78;;;;;;;16.95;41.46;100864.56;5091950;28;20020;-83
2022/03/10 10:22:20;;;;;;;11.93;4.03;;;;;;;16.99;41.10;100860.75;5073360;28;20024;-82
2022/03/10 10:24:50;;;;;;;6.18;3.60;;;;;;;17.05;40.91;100867.63;5074250;28;20024;-83
2022/03/10 10:27:19;;;;;;;8.98;4.15;;;;;;;17.05;40.87;100866.81;5094879;28;20085;-82
2022/03/10 10:30:06;;;;;;;7.00;4.25;;;;;;;17.22;40.71;100860.94;5078228;28;20016;-83
2022/03/10 10:32:52;;;;;;;9.73;3.95;;;;;;;17.24;40.74;100868.91;5096737;28;20103;-84
2022/03/10 10:35:22;;;;;;;11.85;3.90;;;;;;;17.43;40.49;100867.03;5078579;28;20056;-83
2022/03/10 10:37:50;;;;;;;8.20;3.33;;;;;;;17.44;40.70;100867.81;5096501;28;20486;-90
2022/03/10 10:40:22;;;;;;;8.23;3.63;;;;;;;17.34;40.41;100871.94;5072615;28;20095;-85
2022/03/10 10:42:48;;;;;;;5.57;2.97;;;;;;;17.58;40.11;100870.94;5033744;28;20040;-83
2022/03/10 10:45:30;;;;;;;12.52;4.53;;;;;;;17.23;40.36;100876.38;5043398;28;20446;-84
2022/03/10 10:48:12;;;;;;;11.02;3.63;;;;;;;17.52;39.59;100875.13;5024942;28;20029;-83
2022/03/10 10:50:43;;;;;;;7.35;2.50;;;;;;;17.61;39.79;100881.31;5042234;28;20016;-83
2022/03/10 10:53:29;;;;;;;13.68;3.33;;;;;;;17.61;39.23;100872.22;5060571;28;20028;-83
2022/03/10 10:55:57;;;;;;;10.02;3.53;;;;;;;17.80;39.36;100872.31;5060837;28;21580;-84
2022/03/10 10:58:25;;;;;;;12.20;4.53;;;;;;;17.73;39.17;100872.13;5060823;28;20062;-84
2022/03/10 11:00:51;;;;;;;11.63;2.92;;;;;;;17.57;39.28;100863.81;5057879;28;20013;-84
2022/03/10 11:03:23;;;;;;;6.85;2.33;;;;;;;17.71;38.86;100869.72;5034809;28;20017;-83
2022/03/10 11:05:50;;;;;;;13.65;2.45;;;;;;;17.85;38.57;100865.72;5032718;28;20169;-86
2022/03/10 11:08:17;;;;;;;5.68;2.55;;;;;;;18.00;38.05;100865.69;5065108;28;20099;-83
2022/03/10 11:10:43;;;;;;;15.10;3.15;;;;;;;17.97;38.46;100862.81;5076055;28;20224;-83
2022/03/10 11:13:08;;;;;;;206.23;177.88;;;;;;;17.93;38.23;100864.72;5058160;28;20070;-83
2022/03/10 11:15:34;;;;;;;7.55;3.75;;;;;;;18.07;38.28;100859.50;5058169;28;20029;-84
2022/03/10 11:18:02;;;;;;;11.30;3.22;;;;;;;18.01;38.28;100861.75;5056807;28;20032;-82
2022/03/10 11:20:30;;;;;;;8.55;2.53;;;;;;;18.05;37.94;100852.72;5075937;28;20494;-82
2022/03/10 11:23:38;;;;;;;10.32;1.90;;;;;;;17.98;37.35;100854.16;5058005;28;20027;-89
2022/03/10 11:26:21;;;;;;;10.75;2.30;;;;;;;17.90;37.02;100840.53;5076010;28;20090;-84